createdAt,value
2023-02-16T00:04:02.913Z,101197.19
2023-02-16T00:09:07.029Z,101199.03
2023-02-16T00:14:11.153Z,101199.88
2023-02-16T00:19:18.885Z,101197.31
2023-02-16T00:24:23.154Z,101199.31
2023-02-16T00:29:26.931Z,101207.47
2023-02-16T00:34:32.160Z,101199.06
2023-02-16T00:39:36.916Z,101200.25
2023-02-16T00:44:41.645Z,101192.56
2023-02-16T00:49:44.449Z,101197.50
2023-02-16T00:54:48.607Z,101199.41
2023-02-16T00:59:53.891Z,101203.16
2023-02-16T01:04:56.712Z,101189.94
2023-02-16T01:10:18.642Z,101192.72
2023-02-16T01:15:23.106Z,101190.03
2023-02-16T01:20:26.669Z,101194.63
2023-02-16T01:25:30.856Z,101182.28
2023-02-16T01:30:33.759Z,101179.91
2023-02-16T01:35:36.552Z,101176.53
2023-02-16T01:40:42.056Z,101178.47
2023-02-16T01:45:44.960Z,101179.63
2023-02-16T01:50:49.931Z,101189.56
2023-02-16T01:55:56.480Z,101181.53
2023-02-16T02:01:36.785Z,101179.91
2023-02-16T02:06:39.614Z,101177.59
2023-02-16T02:11:46.027Z,101176.06
2023-02-16T02:16:54.729Z,101170.22
2023-02-16T02:22:39.557Z,101165.03
2023-02-16T02:27:43.761Z,101161.78
2023-02-16T02:32:53.095Z,101178.84
2023-02-16T02:37:57.700Z,101169.06
2023-02-16T02:43:06.245Z,101170.13
2023-02-16T02:48:09.796Z,101176.66
2023-02-16T02:53:14.296Z,101161.69
2023-02-16T02:58:36.771Z,101163.88
2023-02-16T03:03:42.140Z,101175.69
2023-02-16T03:08:47.034Z,101169.06
2023-02-16T03:13:52.539Z,101185.72
2023-02-16T03:19:12.841Z,101178.72
2023-02-16T03:24:40.035Z,101177.25
2023-02-16T03:29:44.166Z,101174.03
2023-02-16T03:34:46.917Z,101170.63
2023-02-16T03:40:07.404Z,101180.69
2023-02-16T03:45:11.736Z,101170.28
2023-02-16T03:50:14.621Z,101176.75
2023-02-16T03:55:17.816Z,101176.91
2023-02-16T04:00:22.592Z,101174.50
2023-02-16T04:05:25.506Z,101177.56
2023-02-16T04:10:28.495Z,101182.06
2023-02-16T04:15:32.931Z,101190.34
2023-02-16T04:20:35.961Z,101189.47
2023-02-16T04:25:38.795Z,101191.50
2023-02-16T04:30:43.036Z,101190.63
2023-02-16T04:35:45.965Z,101187.25
2023-02-16T04:40:48.717Z,101182.84
2023-02-16T04:45:53.144Z,101178.53
2023-02-16T04:50:56.008Z,101177.69
2023-02-16T04:55:58.769Z,101177.78
2023-02-16T05:01:03.598Z,101176.06
2023-02-16T05:06:06.950Z,101169.91
2023-02-16T05:11:27.139Z,101176.22
2023-02-16T05:16:31.257Z,101178.22
2023-02-16T05:21:35.214Z,101173.72
2023-02-16T05:26:39.104Z,101182.81
2023-02-16T05:31:43.275Z,101182.91
2023-02-16T05:36:46.166Z,101174.16
2023-02-16T05:41:49.704Z,101178.47
2023-02-16T05:46:53.800Z,101180.38
2023-02-16T05:51:56.677Z,101169.84
2023-02-16T05:56:59.428Z,101167.94
2023-02-16T06:02:03.657Z,101142.22
2023-02-16T06:07:06.553Z,101158.28
2023-02-16T06:12:09.710Z,101166.50
2023-02-16T06:17:13.882Z,101170.91
2023-02-16T06:22:16.705Z,101177.28
2023-02-16T06:27:19.462Z,101179.19
2023-02-16T06:32:23.756Z,101184.63
2023-02-16T06:37:26.650Z,101189.13
2023-02-16T06:42:29.496Z,101184.81
2023-02-16T06:47:33.720Z,101185.69
2023-02-16T06:52:36.499Z,101192.84
2023-02-16T06:57:39.239Z,101175.13
2023-02-16T07:02:43.879Z,101175.13
2023-02-16T07:07:46.638Z,101172.44
2023-02-16T07:12:49.561Z,101169.78
2023-02-16T07:17:53.709Z,101166.22
2023-02-16T07:22:56.529Z,101183.16
2023-02-16T07:27:59.328Z,101180.47
2023-02-16T07:33:03.560Z,101178.66
2023-02-16T07:38:06.625Z,101164.34
2023-02-16T07:43:10.580Z,101175.06
2023-02-16T07:48:14.823Z,101163.50
2023-02-16T07:53:18.051Z,101167.91
2023-02-16T07:58:28.273Z,101154.66
2023-02-16T08:03:32.433Z,101154.81
2023-02-16T08:08:35.201Z,101165.16
2023-02-16T08:13:38.030Z,101180.88
2023-02-16T08:18:42.604Z,101175.78
2023-02-16T08:23:47.534Z,101165.81
2023-02-16T08:28:50.582Z,101162.00
2023-02-16T08:33:55.021Z,101165.19
2023-02-16T08:38:57.787Z,101162.00
2023-02-16T08:44:01.156Z,101155.56
2023-02-16T08:49:05.297Z,101174.41
2023-02-16T08:54:08.885Z,101165.13
2023-02-16T08:59:11.641Z,101173.91
2023-02-16T09:04:16.125Z,101166.84
2023-02-16T09:09:19.165Z,101179.25
2023-02-16T09:14:23.098Z,101173.28
2023-02-16T09:19:28.200Z,101171.97
2023-02-16T09:24:31.021Z,101182.31
2023-02-16T09:29:35.203Z,101168.34
2023-02-16T09:34:39.356Z,101173.91
2023-02-16T09:39:42.121Z,101176.59
2023-02-16T09:44:50.143Z,101178.41
2023-02-16T09:49:56.864Z,101177.47
2023-02-16T09:55:00.483Z,101187.31
2023-02-16T10:00:08.610Z,101179.91
2023-02-16T10:05:18.242Z,101167.00
2023-02-16T10:10:23.060Z,101153.25
2023-02-16T10:15:27.021Z,101159.47
2023-02-16T10:20:33.254Z,101155.56
2023-02-16T10:25:40.432Z,101156.38
2023-02-16T10:30:44.242Z,101149.09
2023-02-16T10:35:49.247Z,101155.06
2023-02-16T10:40:55.116Z,101155.53
2023-02-16T10:45:59.136Z,101156.03
2023-02-16T10:51:04.882Z,101145.78
2023-02-16T10:56:37.225Z,101143.13
2023-02-16T11:01:41.012Z,101149.84
2023-02-16T11:06:45.403Z,101132.78
2023-02-16T11:11:48.501Z,101129.91
2023-02-16T11:16:52.199Z,101125.19
2023-02-16T11:21:56.945Z,101117.66
2023-02-16T11:27:04.499Z,101117.44
2023-02-16T11:32:08.032Z,101117.44
2023-02-16T11:37:17.101Z,101107.97
2023-02-16T11:42:29.258Z,101093.03
2023-02-16T11:47:33.062Z,101090.53
2023-02-16T11:52:37.404Z,101092.56
2023-02-16T11:57:40.709Z,101088.16
2023-02-16T12:03:06.627Z,101078.28
2023-02-16T12:08:24.866Z,101078.38
2023-02-16T12:13:30.829Z,101069.75
2023-02-16T12:18:37.797Z,101067.38
2023-02-16T12:23:43.590Z,101054.09
2023-02-16T12:28:49.332Z,101058.28
2023-02-16T12:33:54.709Z,101044.78
2023-02-16T12:39:04.714Z,101045.63
2023-02-16T12:44:09.745Z,101041.97
2023-02-16T12:49:16.358Z,101029.91
2023-02-16T12:54:22.493Z,101030.78
2023-02-16T12:59:27.286Z,101026.69
2023-02-16T13:04:36.248Z,101036.72
2023-02-16T13:09:42.225Z,101019.69
2023-02-16T13:14:45.165Z,101016.91
2023-02-16T13:19:48.102Z,101009.06
2023-02-16T13:24:59.350Z,101013.19
2023-02-16T13:30:08.886Z,101012.88
2023-02-16T13:35:40.739Z,101012.75
2023-02-16T13:41:23.200Z,101011.84
2023-02-16T13:46:27.696Z,101009.47
2023-02-16T13:51:39.955Z,101014.34
2023-02-16T13:56:44.068Z,101009.75
2023-02-16T14:01:47.313Z,101004.94
2023-02-16T14:06:50.439Z,101011.06
2023-02-16T14:12:05.655Z,101011.38
2023-02-16T14:17:18.542Z,101013.38
2023-02-16T14:22:22.993Z,101018.09
2023-02-16T14:27:44.648Z,101023.09
2023-02-16T14:32:48.748Z,101016.53
2023-02-16T14:37:56.859Z,101021.69
2023-02-16T14:43:04.817Z,101021.41
2023-02-16T14:48:14.602Z,101017.19
2023-02-16T14:53:51.291Z,101025.34
2023-02-16T14:58:56.662Z,101024.97
2023-02-16T15:04:00.080Z,101024.56
2023-02-16T15:09:04.344Z,101020.50
2023-02-16T15:14:09.963Z,101029.75
2023-02-16T15:19:17.646Z,101017.19
2023-02-16T15:24:24.429Z,101013.94
2023-02-16T15:29:29.276Z,100999.47
2023-02-16T15:34:34.746Z,101007.72
2023-02-16T15:39:49.858Z,101002.44
2023-02-16T15:45:00.369Z,101009.72
2023-02-16T15:50:12.809Z,101015.41
2023-02-16T15:55:15.579Z,100993.47
2023-02-16T16:00:22.041Z,100998.94
2023-02-16T16:05:26.108Z,100993.00
2023-02-16T16:10:30.614Z,100990.72
2023-02-16T16:15:37.971Z,100982.97
2023-02-16T16:20:44.077Z,100990.38
2023-02-16T16:25:47.777Z,100977.34
2023-02-16T16:30:51.998Z,100985.59
2023-02-16T16:35:54.851Z,100986.25
2023-02-16T16:40:58.904Z,100990.59
2023-02-16T16:46:14.013Z,100984.28
2023-02-16T16:51:17.855Z,100985.69
2023-02-16T16:56:20.774Z,100983.09
2023-02-16T17:01:25.612Z,100985.69
2023-02-16T17:06:28.439Z,100978.69
2023-02-16T17:11:32.470Z,100977.84
2023-02-16T17:16:38.594Z,100993.94
2023-02-16T17:21:41.584Z,100996.13
2023-02-16T17:26:44.360Z,100990.66
2023-02-16T17:31:50.511Z,101009.31
2023-02-16T17:36:53.543Z,100999.56
2023-02-16T17:41:56.583Z,100993.34
2023-02-16T17:47:00.888Z,101004.38
2023-02-16T17:52:03.775Z,101007.13
2023-02-16T17:57:06.741Z,101009.16
2023-02-16T18:02:12.004Z,100997.69
2023-02-16T18:07:14.967Z,100991.34
2023-02-16T18:12:17.942Z,100999.41
2023-02-16T18:17:22.084Z,101003.16
2023-02-16T18:22:24.869Z,101008.09
2023-02-16T18:27:29.404Z,101004.06
2023-02-16T18:32:33.688Z,101017.84
2023-02-16T18:37:36.725Z,101021.53
2023-02-16T18:42:39.708Z,101021.03
2023-02-16T18:47:45.093Z,101024.38
2023-02-16T18:52:47.919Z,101023.13
2023-02-16T18:57:50.842Z,101005.88
2023-02-16T19:02:55.328Z,101012.56
2023-02-16T19:07:58.272Z,101016.88
2023-02-16T19:13:02.202Z,101025.50
2023-02-16T19:18:06.786Z,101030.47
2023-02-16T19:23:09.553Z,101018.66
2023-02-16T19:28:12.323Z,101004.38
2023-02-16T19:33:16.420Z,101011.91
2023-02-16T19:38:19.349Z,101009.31
2023-02-16T19:43:22.194Z,101006.22
2023-02-16T19:48:26.369Z,101002.56
2023-02-16T19:53:29.284Z,101008.38
2023-02-16T19:58:32.206Z,100993.78
2023-02-16T20:03:36.446Z,100990.13
2023-02-16T20:08:39.227Z,100983.59
2023-02-16T20:13:42.256Z,100986.06
2023-02-16T20:18:46.563Z,100978.75
2023-02-16T20:23:49.602Z,100978.34
2023-02-16T20:28:52.521Z,100966.50
2023-02-16T20:33:56.905Z,100959.31
2023-02-16T20:38:59.715Z,100966.84
2023-02-16T20:44:02.846Z,100958.66
2023-02-16T20:49:06.968Z,100958.66
2023-02-16T20:54:09.805Z,100945.81
2023-02-16T20:59:13.275Z,100944.00
2023-02-16T21:04:18.412Z,100937.41
2023-02-16T21:09:21.220Z,100946.34
2023-02-16T21:14:24.124Z,100941.06
2023-02-16T21:19:28.397Z,100940.09
2023-02-16T21:24:31.221Z,100930.03
2023-02-16T21:29:33.994Z,100927.44
2023-02-16T21:34:38.128Z,100921.84
2023-02-16T21:39:58.252Z,100902.19
2023-02-16T21:45:17.331Z,100903.78
2023-02-16T21:50:21.427Z,100898.53
2023-02-16T21:55:41.634Z,100895.59
2023-02-16T22:00:44.975Z,100899.06
2023-02-16T22:05:49.308Z,100897.31
2023-02-16T22:10:52.059Z,100893.03
2023-02-16T22:15:54.894Z,100887.53
2023-02-16T22:21:02.708Z,100881.31
2023-02-16T22:26:07.425Z,100875.94
2023-02-16T22:31:10.595Z,100872.50
2023-02-16T22:36:15.774Z,100873.38
2023-02-16T22:41:18.743Z,100860.16
2023-02-16T22:46:21.510Z,100861.22
2023-02-16T22:51:27.647Z,100852.22
2023-02-16T22:56:30.727Z,100854.13
2023-02-16T23:01:33.562Z,100851.38
2023-02-16T23:06:37.910Z,100849.53
2023-02-16T23:11:40.720Z,100844.16
2023-02-16T23:16:43.788Z,100842.34
2023-02-16T23:21:47.994Z,100845.66
2023-02-16T23:26:50.870Z,100824.91
2023-02-16T23:31:53.773Z,100825.75
2023-02-16T23:36:57.956Z,100829.97
2023-02-16T23:42:00.867Z,100830.31
2023-02-16T23:47:03.634Z,100832.44
2023-02-16T23:52:07.753Z,100831.16
2023-02-16T23:57:10.638Z,100819.66
